sensor_id;sensor_type;location;lat;lon;timestamp;temperature;humidity
66096;SHT31;53861;53.422;14.530;2023-03-30T00:01:18;8.13;75.36
66096;SHT31;53861;53.422;14.530;2023-03-30T00:03:47;8.05;75.66
66096;SHT31;53861;53.422;14.530;2023-03-30T00:06:21;8.09;75.76
66096;SHT31;53861;53.422;14.530;2023-03-30T00:08:50;8.09;75.58
66096;SHT31;53861;53.422;14.530;2023-03-30T00:11:22;8.07;75.52
66096;SHT31;53861;53.422;14.530;2023-03-30T00:13:51;8.03;75.60
66096;SHT31;53861;53.422;14.530;2023-03-30T00:16:19;8.02;75.47
66096;SHT31;53861;53.422;14.530;2023-03-30T00:18:47;8.02;75.43
66096;SHT31;53861;53.422;14.530;2023-03-30T00:21:18;7.92;75.82
66096;SHT31;53861;53.422;14.530;2023-03-30T00:23:52;7.89;75.96
66096;SHT31;53861;53.422;14.530;2023-03-30T00:26:22;7.90;76.10
66096;SHT31;53861;53.422;14.530;2023-03-30T00:28:51;7.76;76.17
66096;SHT31;53861;53.422;14.530;2023-03-30T00:31:18;7.68;76.83
66096;SHT31;53861;53.422;14.530;2023-03-30T00:33:51;7.67;77.09
66096;SHT31;53861;53.422;14.530;2023-03-30T00:36:18;7.65;76.98
66096;SHT31;53861;53.422;14.530;2023-03-30T00:38:48;7.61;77.21
66096;SHT31;53861;53.422;14.530;2023-03-30T00:41:15;7.61;77.34
66096;SHT31;53861;53.422;14.530;2023-03-30T00:43:57;7.71;77.04
66096;SHT31;53861;53.422;14.530;2023-03-30T00:46:25;7.79;76.79
66096;SHT31;53861;53.422;14.530;2023-03-30T00:48:53;7.67;77.09
66096;SHT31;53861;53.422;14.530;2023-03-30T00:51:27;7.69;77.19
66096;SHT31;53861;53.422;14.530;2023-03-30T00:53:59;7.64;77.64
66096;SHT31;53861;53.422;14.530;2023-03-30T00:56:29;7.67;77.42
66096;SHT31;53861;53.422;14.530;2023-03-30T00:59:03;7.62;77.90
66096;SHT31;53861;53.422;14.530;2023-03-30T01:01:33;7.59;77.79
66096;SHT31;53861;53.422;14.530;2023-03-30T01:04:08;7.65;77.63
66096;SHT31;53861;53.422;14.530;2023-03-30T01:06:36;7.62;77.76
66096;SHT31;53861;53.422;14.530;2023-03-30T01:09:09;7.59;77.68
66096;SHT31;53861;53.422;14.530;2023-03-30T01:11:37;7.71;77.55
66096;SHT31;53861;53.422;14.530;2023-03-30T01:14:06;7.81;77.20
66096;SHT31;53861;53.422;14.530;2023-03-30T01:16:42;7.79;77.21
66096;SHT31;53861;53.422;14.530;2023-03-30T01:19:31;7.81;77.29
66096;SHT31;53861;53.422;14.530;2023-03-30T01:22:25;7.85;77.24
66096;SHT31;53861;53.422;14.530;2023-03-30T01:28:16;7.88;77.17
66096;SHT31;53861;53.422;14.530;2023-03-30T01:31:21;7.79;77.29
66096;SHT31;53861;53.422;14.530;2023-03-30T01:40:08;7.75;77.54
66096;SHT31;53861;53.422;14.530;2023-03-30T01:42:49;7.76;77.62
66096;SHT31;53861;53.422;14.530;2023-03-30T01:45:29;7.76;77.76
66096;SHT31;53861;53.422;14.530;2023-03-30T01:48:13;7.74;77.63
66096;SHT31;53861;53.422;14.530;2023-03-30T01:50:48;7.68;78.07
66096;SHT31;53861;53.422;14.530;2023-03-30T01:53:27;7.78;77.64
66096;SHT31;53861;53.422;14.530;2023-03-30T01:56:03;7.76;77.84
66096;SHT31;53861;53.422;14.530;2023-03-30T01:58:38;7.69;78.17
66096;SHT31;53861;53.422;14.530;2023-03-30T02:01:15;7.71;78.12
66096;SHT31;53861;53.422;14.530;2023-03-30T02:03:47;7.81;78.34
66096;SHT31;53861;53.422;14.530;2023-03-30T02:06:22;7.79;78.39
66096;SHT31;53861;53.422;14.530;2023-03-30T02:08:53;7.68;78.84
66096;SHT31;53861;53.422;14.530;2023-03-30T02:11:28;7.75;79.01
66096;SHT31;53861;53.422;14.530;2023-03-30T02:14:04;7.79;78.58
66096;SHT31;53861;53.422;14.530;2023-03-30T02:16:39;7.88;78.32
66096;SHT31;53861;53.422;14.530;2023-03-30T02:19:08;7.82;78.38
66096;SHT31;53861;53.422;14.530;2023-03-30T02:21:37;7.68;79.22
66096;SHT31;53861;53.422;14.530;2023-03-30T02:24:07;7.64;79.01
66096;SHT31;53861;53.422;14.530;2023-03-30T02:26:46;7.71;79.13
66096;SHT31;53861;53.422;14.530;2023-03-30T02:29:17;7.71;79.55
66096;SHT31;53861;53.422;14.530;2023-03-30T02:31:49;7.75;79.58
66096;SHT31;53861;53.422;14.530;2023-03-30T02:34:27;7.65;79.87
66096;SHT31;53861;53.422;14.530;2023-03-30T02:40:10;7.68;80.17
66096;SHT31;53861;53.422;14.530;2023-03-30T02:42:53;7.57;80.54
66096;SHT31;53861;53.422;14.530;2023-03-30T02:45:34;7.54;80.78
66096;SHT31;53861;53.422;14.530;2023-03-30T02:48:13;7.52;80.99
66096;SHT31;53861;53.422;14.530;2023-03-30T02:50:45;7.57;81.50
66096;SHT31;53861;53.422;14.530;2023-03-30T02:53:22;7.50;81.59
66096;SHT31;53861;53.422;14.530;2023-03-30T02:55:59;7.51;81.94
66096;SHT31;53861;53.422;14.530;2023-03-30T02:58:38;7.54;82.16
66096;SHT31;53861;53.422;14.530;2023-03-30T03:01:12;7.48;82.48
66096;SHT31;53861;53.422;14.530;2023-03-30T03:03:47;7.44;82.73
66096;SHT31;53861;53.422;14.530;2023-03-30T03:06:26;7.43;82.94
66096;SHT31;53861;53.422;14.530;2023-03-30T03:08:56;7.25;83.97
66096;SHT31;53861;53.422;14.530;2023-03-30T03:11:25;7.23;84.32
66096;SHT31;53861;53.422;14.530;2023-03-30T03:13:57;7.32;84.05
66096;SHT31;53861;53.422;14.530;2023-03-30T03:16:26;7.37;84.26
66096;SHT31;53861;53.422;14.530;2023-03-30T03:18:54;7.28;84.48
66096;SHT31;53861;53.422;14.530;2023-03-30T03:21:21;7.23;84.60
66096;SHT31;53861;53.422;14.530;2023-03-30T03:23:49;7.31;84.57
66096;SHT31;53861;53.422;14.530;2023-03-30T03:26:16;7.34;85.05
66096;SHT31;53861;53.422;14.530;2023-03-30T03:28:47;7.35;84.93
66096;SHT31;53861;53.422;14.530;2023-03-30T03:31:16;7.15;85.39
66096;SHT31;53861;53.422;14.530;2023-03-30T03:33:43;7.15;85.49
66096;SHT31;53861;53.422;14.530;2023-03-30T03:36:15;7.14;86.25
66096;SHT31;53861;53.422;14.530;2023-03-30T03:38:43;7.13;86.32
66096;SHT31;53861;53.422;14.530;2023-03-30T03:41:10;7.17;86.19
66096;SHT31;53861;53.422;14.530;2023-03-30T03:43:37;7.25;85.93
66096;SHT31;53861;53.422;14.530;2023-03-30T03:46:07;7.31;85.81
66096;SHT31;53861;53.422;14.530;2023-03-30T03:48:38;7.28;85.72
66096;SHT31;53861;53.422;14.530;2023-03-30T03:51:08;7.37;85.52
66096;SHT31;53861;53.422;14.530;2023-03-30T03:53:38;7.35;85.54
66096;SHT31;53861;53.422;14.530;2023-03-30T03:56:06;7.37;85.66
66096;SHT31;53861;53.422;14.530;2023-03-30T03:58:34;7.31;86.01
66096;SHT31;53861;53.422;14.530;2023-03-30T04:01:05;7.25;86.29
66096;SHT31;53861;53.422;14.530;2023-03-30T04:03:32;7.31;86.51
66096;SHT31;53861;53.422;14.530;2023-03-30T04:06:04;7.31;86.63
66096;SHT31;53861;53.422;14.530;2023-03-30T04:08:37;7.34;86.42
66096;SHT31;53861;53.422;14.530;2023-03-30T04:11:08;7.34;86.64
66096;SHT31;53861;53.422;14.530;2023-03-30T04:13:38;7.30;86.74
66096;SHT31;53861;53.422;14.530;2023-03-30T04:16:06;7.24;86.78
66096;SHT31;53861;53.422;14.530;2023-03-30T04:18:37;7.24;87.07
66096;SHT31;53861;53.422;14.530;2023-03-30T04:21:07;7.25;87.12
66096;SHT31;53861;53.422;14.530;2023-03-30T04:23:38;7.17;87.46
66096;SHT31;53861;53.422;14.530;2023-03-30T04:26:10;7.18;87.33
66096;SHT31;53861;53.422;14.530;2023-03-30T04:28:40;7.27;87.33
66096;SHT31;53861;53.422;14.530;2023-03-30T04:31:09;7.24;87.47
66096;SHT31;53861;53.422;14.530;2023-03-30T04:33:42;7.21;87.50
66096;SHT31;53861;53.422;14.530;2023-03-30T04:36:16;7.23;87.64
66096;SHT31;53861;53.422;14.530;2023-03-30T04:38:47;7.25;87.64
66096;SHT31;53861;53.422;14.530;2023-03-30T04:41:28;7.23;87.90
66096;SHT31;53861;53.422;14.530;2023-03-30T04:44:00;7.25;88.10
66096;SHT31;53861;53.422;14.530;2023-03-30T04:46:28;7.41;87.66
66096;SHT31;53861;53.422;14.530;2023-03-30T04:48:57;7.32;87.94
66096;SHT31;53861;53.422;14.530;2023-03-30T04:51:28;7.44;87.78
66096;SHT31;53861;53.422;14.530;2023-03-30T04:53:56;7.48;87.63
66096;SHT31;53861;53.422;14.530;2023-03-30T04:56:23;7.41;87.70
66096;SHT31;53861;53.422;14.530;2023-03-30T04:58:57;7.32;88.25
66096;SHT31;53861;53.422;14.530;2023-03-30T05:01:27;7.40;87.78
66096;SHT31;53861;53.422;14.530;2023-03-30T05:03:57;7.35;88.28
66096;SHT31;53861;53.422;14.530;2023-03-30T05:06:31;7.47;88.11
66096;SHT31;53861;53.422;14.530;2023-03-30T05:08:58;7.50;87.98
66096;SHT31;53861;53.422;14.530;2023-03-30T05:11:28;7.55;87.89
66096;SHT31;53861;53.422;14.530;2023-03-30T05:13:58;7.62;87.82
66096;SHT31;53861;53.422;14.530;2023-03-30T05:16:28;7.79;87.49
66096;SHT31;53861;53.422;14.530;2023-03-30T05:18:55;7.88;87.21
66096;SHT31;53861;53.422;14.530;2023-03-30T05:21:22;7.65;87.77
66096;SHT31;53861;53.422;14.530;2023-03-30T05:23:51;7.68;87.87
66096;SHT31;53861;53.422;14.530;2023-03-30T05:26:19;7.67;87.78
66096;SHT31;53861;53.422;14.530;2023-03-30T05:28:49;7.62;87.94
66096;SHT31;53861;53.422;14.530;2023-03-30T05:31:17;7.61;88.22
66096;SHT31;53861;53.422;14.530;2023-03-30T05:33:44;7.75;88.02
66096;SHT31;53861;53.422;14.530;2023-03-30T05:36:12;7.78;88.26
66096;SHT31;53861;53.422;14.530;2023-03-30T05:38:42;7.76;87.99
66096;SHT31;53861;53.422;14.530;2023-03-30T05:41:12;7.82;88.10
66096;SHT31;53861;53.422;14.530;2023-03-30T05:43:40;7.76;88.16
66096;SHT31;53861;53.422;14.530;2023-03-30T05:46:07;7.86;88.31
66096;SHT31;53861;53.422;14.530;2023-03-30T05:48:34;7.85;88.61
66096;SHT31;53861;53.422;14.530;2023-03-30T05:51:02;7.92;88.39
66096;SHT31;53861;53.422;14.530;2023-03-30T05:53:29;7.95;88.28
66096;SHT31;53861;53.422;14.530;2023-03-30T05:55:57;7.96;87.98
66096;SHT31;53861;53.422;14.530;2023-03-30T05:58:25;7.88;88.26
66096;SHT31;53861;53.422;14.530;2023-03-30T06:00:56;7.86;88.09
66096;SHT31;53861;53.422;14.530;2023-03-30T06:03:23;7.90;88.34
66096;SHT31;53861;53.422;14.530;2023-03-30T06:05:52;7.93;88.13
66096;SHT31;53861;53.422;14.530;2023-03-30T06:08:19;7.85;88.55
66096;SHT31;53861;53.422;14.530;2023-03-30T06:10:51;7.83;88.44
66096;SHT31;53861;53.422;14.530;2023-03-30T06:13:19;7.86;88.47
66096;SHT31;53861;53.422;14.530;2023-03-30T06:15:50;7.85;88.27
66096;SHT31;53861;53.422;14.530;2023-03-30T06:18:17;7.86;88.60
66096;SHT31;53861;53.422;14.530;2023-03-30T06:20:46;7.96;88.25
66096;SHT31;53861;53.422;14.530;2023-03-30T06:23:14;7.96;88.31
66096;SHT31;53861;53.422;14.530;2023-03-30T06:25:45;7.81;88.50
66096;SHT31;53861;53.422;14.530;2023-03-30T06:28:12;7.82;88.58
66096;SHT31;53861;53.422;14.530;2023-03-30T06:30:39;7.72;88.97
66096;SHT31;53861;53.422;14.530;2023-03-30T06:33:08;7.85;88.97
66096;SHT31;53861;53.422;14.530;2023-03-30T06:35:36;7.99;88.45
66096;SHT31;53861;53.422;14.530;2023-03-30T06:38:03;7.96;88.64
66096;SHT31;53861;53.422;14.530;2023-03-30T06:40:31;8.02;88.83
66096;SHT31;53861;53.422;14.530;2023-03-30T06:42:58;8.14;88.29
66096;SHT31;53861;53.422;14.530;2023-03-30T06:45:27;8.16;88.59
66096;SHT31;53861;53.422;14.530;2023-03-30T06:47:55;8.29;88.39
66096;SHT31;53861;53.422;14.530;2023-03-30T06:50:24;8.30;88.17
66096;SHT31;53861;53.422;14.530;2023-03-30T06:52:51;8.47;87.74
66096;SHT31;53861;53.422;14.530;2023-03-30T06:55:19;8.61;87.44
66096;SHT31;53861;53.422;14.530;2023-03-30T06:57:46;8.68;87.40
66096;SHT31;53861;53.422;14.530;2023-03-30T07:00:14;8.56;87.27
66096;SHT31;53861;53.422;14.530;2023-03-30T07:02:42;8.64;87.74
66096;SHT31;53861;53.422;14.530;2023-03-30T07:05:09;8.97;86.85
66096;SHT31;53861;53.422;14.530;2023-03-30T07:07:39;8.84;86.53
66096;SHT31;53861;53.422;14.530;2023-03-30T07:10:07;8.97;86.88
66096;SHT31;53861;53.422;14.530;2023-03-30T07:12:36;8.87;86.91
66096;SHT31;53861;53.422;14.530;2023-03-30T07:15:04;8.97;87.10
66096;SHT31;53861;53.422;14.530;2023-03-30T07:17:32;9.28;86.05
66096;SHT31;53861;53.422;14.530;2023-03-30T07:20:00;9.18;85.63
66096;SHT31;53861;53.422;14.530;2023-03-30T07:22:28;9.18;86.25
66096;SHT31;53861;53.422;14.530;2023-03-30T07:24:57;9.23;86.15
66096;SHT31;53861;53.422;14.530;2023-03-30T07:27:24;9.26;86.17
66096;SHT31;53861;53.422;14.530;2023-03-30T07:29:52;9.43;85.72
66096;SHT31;53861;53.422;14.530;2023-03-30T07:32:19;9.62;85.00
66096;SHT31;53861;53.422;14.530;2023-03-30T07:34:47;9.75;84.64
66096;SHT31;53861;53.422;14.530;2023-03-30T07:37:14;9.77;84.74
66096;SHT31;53861;53.422;14.530;2023-03-30T07:39:42;9.89;85.08
66096;SHT31;53861;53.422;14.530;2023-03-30T07:42:11;10.10;84.19
66096;SHT31;53861;53.422;14.530;2023-03-30T07:44:38;10.24;84.38
66096;SHT31;53861;53.422;14.530;2023-03-30T07:47:05;10.34;83.83
66096;SHT31;53861;53.422;14.530;2023-03-30T07:49:33;10.31;84.57
66096;SHT31;53861;53.422;14.530;2023-03-30T07:52:00;10.33;84.55
66096;SHT31;53861;53.422;14.530;2023-03-30T07:54:27;10.42;84.73
66096;SHT31;53861;53.422;14.530;2023-03-30T07:56:55;10.45;84.90
66096;SHT31;53861;53.422;14.530;2023-03-30T07:59:23;10.58;84.06
66096;SHT31;53861;53.422;14.530;2023-03-30T08:01:51;10.64;82.65
66096;SHT31;53861;53.422;14.530;2023-03-30T08:04:20;10.61;82.89
66096;SHT31;53861;53.422;14.530;2023-03-30T08:06:49;10.76;82.07
66096;SHT31;53861;53.422;14.530;2023-03-30T08:09:18;10.79;82.46
66096;SHT31;53861;53.422;14.530;2023-03-30T08:11:45;10.52;82.76
66096;SHT31;53861;53.422;14.530;2023-03-30T08:14:13;10.47;83.28
66096;SHT31;53861;53.422;14.530;2023-03-30T08:16:41;10.49;82.70
66096;SHT31;53861;53.422;14.530;2023-03-30T08:19:09;10.62;82.13
66096;SHT31;53861;53.422;14.530;2023-03-30T08:21:36;10.98;81.81
66096;SHT31;53861;53.422;14.530;2023-03-30T08:24:04;11.49;79.75
66096;SHT31;53861;53.422;14.530;2023-03-30T08:26:32;11.77;79.22
66096;SHT31;53861;53.422;14.530;2023-03-30T08:29:01;12.25;78.09
66096;SHT31;53861;53.422;14.530;2023-03-30T08:31:29;12.01;77.96
66096;SHT31;53861;53.422;14.530;2023-03-30T08:33:59;11.85;78.61
66096;SHT31;53861;53.422;14.530;2023-03-30T08:36:28;12.28;77.28
66096;SHT31;53861;53.422;14.530;2023-03-30T08:38:55;13.24;74.11
66096;SHT31;53861;53.422;14.530;2023-03-30T08:41:57;13.82;72.17
66096;SHT31;53861;53.422;14.530;2023-03-30T08:44:32;13.69;71.55
66096;SHT31;53861;53.422;14.530;2023-03-30T08:47:02;13.08;73.63
66096;SHT31;53861;53.422;14.530;2023-03-30T08:49:36;12.55;74.63
66096;SHT31;53861;53.422;14.530;2023-03-30T08:52:06;12.06;76.45
66096;SHT31;53861;53.422;14.530;2023-03-30T08:54:33;12.28;76.08
66096;SHT31;53861;53.422;14.530;2023-03-30T08:57:08;12.57;75.19
66096;SHT31;53861;53.422;14.530;2023-03-30T08:59:42;13.13;74.88
66096;SHT31;53861;53.422;14.530;2023-03-30T09:02:16;13.98;72.29
66096;SHT31;53861;53.422;14.530;2023-03-30T09:04:54;14.40;70.85
66096;SHT31;53861;53.422;14.530;2023-03-30T09:07:28;16.31;70.79
66096;SHT31;53861;53.422;14.530;2023-03-30T09:09:58;16.57;65.40
66096;SHT31;53861;53.422;14.530;2023-03-30T09:12:35;16.96;67.10
66096;SHT31;53861;53.422;14.530;2023-03-30T09:15:05;16.12;66.45
66096;SHT31;53861;53.422;14.530;2023-03-30T09:17:38;17.46;63.93
66096;SHT31;53861;53.422;14.530;2023-03-30T09:20:13;16.26;64.90
66096;SHT31;53861;53.422;14.530;2023-03-30T09:22:48;15.21;67.33
66096;SHT31;53861;53.422;14.530;2023-03-30T09:25:18;14.94;68.77
66096;SHT31;53861;53.422;14.530;2023-03-30T09:27:57;14.88;69.54
66096;SHT31;53861;53.422;14.530;2023-03-30T09:30:33;15.30;70.02
66096;SHT31;53861;53.422;14.530;2023-03-30T09:33:06;14.94;67.81
66096;SHT31;53861;53.422;14.530;2023-03-30T09:35:40;14.81;68.53
66096;SHT31;53861;53.422;14.530;2023-03-30T09:38:10;14.43;70.37
66096;SHT31;53861;53.422;14.530;2023-03-30T09:40:49;14.23;70.08
66096;SHT31;53861;53.422;14.530;2023-03-30T09:43:29;14.06;70.77
66096;SHT31;53861;53.422;14.530;2023-03-30T09:46:01;13.59;73.68
66096;SHT31;53861;53.422;14.530;2023-03-30T09:48:37;13.27;74.61
66096;SHT31;53861;53.422;14.530;2023-03-30T09:51:20;13.02;73.43
66096;SHT31;53861;53.422;14.530;2023-03-30T09:53:49;13.14;73.96
66096;SHT31;53861;53.422;14.530;2023-03-30T09:56:25;13.03;73.72
66096;SHT31;53861;53.422;14.530;2023-03-30T09:58:53;12.86;74.98
66096;SHT31;53861;53.422;14.530;2023-03-30T10:01:21;12.94;74.15
66096;SHT31;53861;53.422;14.530;2023-03-30T10:04:08;12.46;75.36
66096;SHT31;53861;53.422;14.530;2023-03-30T10:06:43;12.59;75.77
66096;SHT31;53861;53.422;14.530;2023-03-30T10:09:12;12.38;75.33
66096;SHT31;53861;53.422;14.530;2023-03-30T10:11:41;12.20;77.24
66096;SHT31;53861;53.422;14.530;2023-03-30T10:14:24;12.24;77.54
66096;SHT31;53861;53.422;14.530;2023-03-30T10:16:54;12.20;77.83
66096;SHT31;53861;53.422;14.530;2023-03-30T10:19:22;12.29;77.98
66096;SHT31;53861;53.422;14.530;2023-03-30T10:21:54;12.39;77.52
66096;SHT31;53861;53.422;14.530;2023-03-30T10:24:24;12.56;76.22
66096;SHT31;53861;53.422;14.530;2023-03-30T10:26:56;12.65;75.16
66096;SHT31;53861;53.422;14.530;2023-03-30T10:29:26;12.52;76.03
66096;SHT31;53861;53.422;14.530;2023-03-30T10:31:58;12.39;76.52
66096;SHT31;53861;53.422;14.530;2023-03-30T10:34:33;12.31;76.46
66096;SHT31;53861;53.422;14.530;2023-03-30T10:37:08;12.43;76.51
66096;SHT31;53861;53.422;14.530;2023-03-30T10:39:39;12.52;76.95
66096;SHT31;53861;53.422;14.530;2023-03-30T10:42:08;12.39;76.39
66096;SHT31;53861;53.422;14.530;2023-03-30T10:44:44;12.55;76.11
66096;SHT31;53861;53.422;14.530;2023-03-30T10:47:48;12.46;76.05
66096;SHT31;53861;53.422;14.530;2023-03-30T10:50:23;12.43;75.95
66096;SHT31;53861;53.422;14.530;2023-03-30T10:53:03;12.43;76.24
66096;SHT31;53861;53.422;14.530;2023-03-30T10:55:40;12.29;76.38
66096;SHT31;53861;53.422;14.530;2023-03-30T10:58:18;11.97;77.75
66096;SHT31;53861;53.422;14.530;2023-03-30T11:00:59;11.92;77.88
66096;SHT31;53861;53.422;14.530;2023-03-30T11:03:28;11.98;78.23
66096;SHT31;53861;53.422;14.530;2023-03-30T11:06:02;11.99;77.98
66096;SHT31;53861;53.422;14.530;2023-03-30T11:08:37;11.95;78.37
66096;SHT31;53861;53.422;14.530;2023-03-30T11:11:08;11.97;77.94
66096;SHT31;53861;53.422;14.530;2023-03-30T11:13:39;12.04;78.14
66096;SHT31;53861;53.422;14.530;2023-03-30T11:16:11;12.01;77.45
66096;SHT31;53861;53.422;14.530;2023-03-30T11:18:43;11.94;77.40
66096;SHT31;53861;53.422;14.530;2023-03-30T11:21:16;11.95;77.76
66096;SHT31;53861;53.422;14.530;2023-03-30T11:23:50;11.92;77.91
66096;SHT31;53861;53.422;14.530;2023-03-30T11:26:21;11.90;78.17
66096;SHT31;53861;53.422;14.530;2023-03-30T11:29:01;12.05;77.21
66096;SHT31;53861;53.422;14.530;2023-03-30T11:31:41;11.94;78.06
66096;SHT31;53861;53.422;14.530;2023-03-30T11:34:15;12.11;77.82
66096;SHT31;53861;53.422;14.530;2023-03-30T11:36:50;12.18;77.73
66096;SHT31;53861;53.422;14.530;2023-03-30T11:39:28;12.25;77.87
66096;SHT31;53861;53.422;14.530;2023-03-30T11:42:02;12.38;76.35
66096;SHT31;53861;53.422;14.530;2023-03-30T11:44:31;12.36;76.56
66096;SHT31;53861;53.422;14.530;2023-03-30T11:47:07;12.26;77.75
66096;SHT31;53861;53.422;14.530;2023-03-30T11:49:47;12.29;78.80
66096;SHT31;53861;53.422;14.530;2023-03-30T11:52:26;12.33;78.58
66096;SHT31;53861;53.422;14.530;2023-03-30T11:55:22;12.45;77.72
66096;SHT31;53861;53.422;14.530;2023-03-30T11:58:01;12.41;77.60
66096;SHT31;53861;53.422;14.530;2023-03-30T12:00:47;12.55;77.52
66096;SHT31;53861;53.422;14.530;2023-03-30T12:03:25;12.69;77.25
66096;SHT31;53861;53.422;14.530;2023-03-30T12:06:05;12.67;76.95
66096;SHT31;53861;53.422;14.530;2023-03-30T12:08:47;12.83;76.96
66096;SHT31;53861;53.422;14.530;2023-03-30T12:11:25;12.90;77.11
66096;SHT31;53861;53.422;14.530;2023-03-30T12:13:54;13.11;77.82
66096;SHT31;53861;53.422;14.530;2023-03-30T12:16:26;13.90;77.30
66096;SHT31;53861;53.422;14.530;2023-03-30T12:19:04;15.07;71.11
66096;SHT31;53861;53.422;14.530;2023-03-30T12:21:37;16.47;68.82
66096;SHT31;53861;53.422;14.530;2023-03-30T12:24:12;17.39;68.56
66096;SHT31;53861;53.422;14.530;2023-03-30T12:26:43;18.52;65.13
66096;SHT31;53861;53.422;14.530;2023-03-30T12:29:12;18.93;61.55
66096;SHT31;53861;53.422;14.530;2023-03-30T12:31:48;18.00;64.10
66096;SHT31;53861;53.422;14.530;2023-03-30T12:34:16;17.49;66.71
66096;SHT31;53861;53.422;14.530;2023-03-30T12:36:46;17.19;65.90
66096;SHT31;53861;53.422;14.530;2023-03-30T12:39:17;18.11;64.47
66096;SHT31;53861;53.422;14.530;2023-03-30T12:41:49;18.37;64.88
66096;SHT31;53861;53.422;14.530;2023-03-30T12:44:33;19.63;61.87
66096;SHT31;53861;53.422;14.530;2023-03-30T12:47:31;19.92;60.58
66096;SHT31;53861;53.422;14.530;2023-03-30T12:50:11;20.21;61.46
66096;SHT31;53861;53.422;14.530;2023-03-30T12:52:47;18.75;61.39
66096;SHT31;53861;53.422;14.530;2023-03-30T12:55:33;18.82;64.98
66096;SHT31;53861;53.422;14.530;2023-03-30T12:58:16;18.15;65.26
66096;SHT31;53861;53.422;14.530;2023-03-30T13:01:09;17.59;65.94
66096;SHT31;53861;53.422;14.530;2023-03-30T13:03:42;17.33;65.47
66096;SHT31;53861;53.422;14.530;2023-03-30T13:06:21;17.01;66.06
66096;SHT31;53861;53.422;14.530;2023-03-30T13:08:54;16.85;66.46
66096;SHT31;53861;53.422;14.530;2023-03-30T13:11:23;16.71;67.42
66096;SHT31;53861;53.422;14.530;2023-03-30T13:13:56;16.75;68.25
66096;SHT31;53861;53.422;14.530;2023-03-30T13:16:46;16.65;69.23
66096;SHT31;53861;53.422;14.530;2023-03-30T13:19:21;16.65;67.04
66096;SHT31;53861;53.422;14.530;2023-03-30T13:21:55;17.28;67.23
66096;SHT31;53861;53.422;14.530;2023-03-30T13:24:25;17.98;65.18
66096;SHT31;53861;53.422;14.530;2023-03-30T13:27:10;17.76;65.51
66096;SHT31;53861;53.422;14.530;2023-03-30T13:29:52;18.07;66.58
66096;SHT31;53861;53.422;14.530;2023-03-30T13:32:26;17.93;64.30
66096;SHT31;53861;53.422;14.530;2023-03-30T13:35:03;18.07;66.81
66096;SHT31;53861;53.422;14.530;2023-03-30T13:37:50;18.15;64.88
66096;SHT31;53861;53.422;14.530;2023-03-30T13:40:23;17.77;66.97
66096;SHT31;53861;53.422;14.530;2023-03-30T13:43:05;17.81;65.59
66096;SHT31;53861;53.422;14.530;2023-03-30T13:45:43;17.70;65.57
66096;SHT31;53861;53.422;14.530;2023-03-30T13:48:24;17.66;65.68
66096;SHT31;53861;53.422;14.530;2023-03-30T13:50:57;17.70;66.66
66096;SHT31;53861;53.422;14.530;2023-03-30T13:53:27;17.47;68.80
66096;SHT31;53861;53.422;14.530;2023-03-30T13:55:54;17.30;66.70
66096;SHT31;53861;53.422;14.530;2023-03-30T13:58:24;17.16;67.76
66096;SHT31;53861;53.422;14.530;2023-03-30T14:00:57;17.02;67.35
66096;SHT31;53861;53.422;14.530;2023-03-30T14:03:31;16.71;70.07
66096;SHT31;53861;53.422;14.530;2023-03-30T14:06:00;16.48;68.62
66096;SHT31;53861;53.422;14.530;2023-03-30T14:08:30;16.18;70.40
66096;SHT31;53861;53.422;14.530;2023-03-30T14:11:07;16.00;72.10
66096;SHT31;53861;53.422;14.530;2023-03-30T14:13:35;15.81;73.71
66096;SHT31;53861;53.422;14.530;2023-03-30T14:16:05;15.58;74.47
66096;SHT31;53861;53.422;14.530;2023-03-30T14:18:32;15.51;76.12
66096;SHT31;53861;53.422;14.530;2023-03-30T14:21:02;15.21;77.50
66096;SHT31;53861;53.422;14.530;2023-03-30T14:23:33;14.92;80.22
66096;SHT31;53861;53.422;14.530;2023-03-30T14:26:04;14.55;84.40
66096;SHT31;53861;53.422;14.530;2023-03-30T14:28:34;13.83;89.73
66096;SHT31;53861;53.422;14.530;2023-03-30T14:31:12;13.79;88.60
66096;SHT31;53861;53.422;14.530;2023-03-30T14:33:40;13.44;88.73
66096;SHT31;53861;53.422;14.530;2023-03-30T14:36:08;13.30;91.08
66096;SHT31;53861;53.422;14.530;2023-03-30T14:38:38;13.13;90.41
66096;SHT31;53861;53.422;14.530;2023-03-30T14:41:09;13.02;90.59
66096;SHT31;53861;53.422;14.530;2023-03-30T14:43:38;13.08;91.90
66096;SHT31;53861;53.422;14.530;2023-03-30T14:46:11;13.03;91.56
66096;SHT31;53861;53.422;14.530;2023-03-30T14:48:40;13.00;91.58
66096;SHT31;53861;53.422;14.530;2023-03-30T14:51:21;12.93;92.07
66096;SHT31;53861;53.422;14.530;2023-03-30T14:53:49;12.80;91.72
66096;SHT31;53861;53.422;14.530;2023-03-30T14:56:17;12.69;91.99
66096;SHT31;53861;53.422;14.530;2023-03-30T14:58:46;12.57;92.98
66096;SHT31;53861;53.422;14.530;2023-03-30T15:01:19;12.66;92.81
66096;SHT31;53861;53.422;14.530;2023-03-30T15:03:48;12.63;92.62
66096;SHT31;53861;53.422;14.530;2023-03-30T15:06:19;12.70;92.93
66096;SHT31;53861;53.422;14.530;2023-03-30T15:08:49;12.65;92.66
66096;SHT31;53861;53.422;14.530;2023-03-30T15:11:19;12.65;92.75
66096;SHT31;53861;53.422;14.530;2023-03-30T15:13:50;12.53;92.96
66096;SHT31;53861;53.422;14.530;2023-03-30T15:16:21;12.63;93.04
66096;SHT31;53861;53.422;14.530;2023-03-30T15:18:50;12.60;92.53
66096;SHT31;53861;53.422;14.530;2023-03-30T15:21:19;12.55;92.79
66096;SHT31;53861;53.422;14.530;2023-03-30T15:23:48;12.52;92.75
66096;SHT31;53861;53.422;14.530;2023-03-30T15:26:17;12.39;92.94
66096;SHT31;53861;53.422;14.530;2023-03-30T15:28:48;12.35;93.19
66096;SHT31;53861;53.422;14.530;2023-03-30T15:31:19;12.39;93.35
66096;SHT31;53861;53.422;14.530;2023-03-30T15:33:50;12.38;93.39
66096;SHT31;53861;53.422;14.530;2023-03-30T15:36:19;12.39;92.93
66096;SHT31;53861;53.422;14.530;2023-03-30T15:38:49;12.36;93.04
66096;SHT31;53861;53.422;14.530;2023-03-30T15:41:20;12.38;92.82
66096;SHT31;53861;53.422;14.530;2023-03-30T15:43:56;12.36;92.42
66096;SHT31;53861;53.422;14.530;2023-03-30T15:46:25;12.42;92.58
66096;SHT31;53861;53.422;14.530;2023-03-30T15:48:53;12.43;92.40
66096;SHT31;53861;53.422;14.530;2023-03-30T15:51:25;12.29;92.25
66096;SHT31;53861;53.422;14.530;2023-03-30T15:53:58;12.28;92.14
66096;SHT31;53861;53.422;14.530;2023-03-30T15:56:30;12.24;92.02
66096;SHT31;53861;53.422;14.530;2023-03-30T15:59:00;12.28;91.73
66096;SHT31;53861;53.422;14.530;2023-03-30T16:01:41;12.26;91.59
66096;SHT31;53861;53.422;14.530;2023-03-30T16:04:12;12.28;91.78
66096;SHT31;53861;53.422;14.530;2023-03-30T16:06:39;12.20;91.04